createdAt,value
2019-02-12T00:01:39.850Z,101854.77
2019-02-12T00:04:11.463Z,101864.26
2019-02-12T00:06:43.539Z,101864.66
2019-02-12T00:09:15.376Z,101866.81
2019-02-12T00:11:47.044Z,101866.37
2019-02-12T00:14:18.643Z,101869.81
2019-02-12T00:16:50.970Z,101864.59
2019-02-12T00:19:22.610Z,101861.55
2019-02-12T00:21:54.283Z,101865.45
2019-02-12T00:24:26.144Z,101865.47
2019-02-12T00:26:57.787Z,101863.77
2019-02-12T00:29:29.482Z,101871.98
2019-02-12T00:32:01.848Z,101871.12
2019-02-12T00:34:33.695Z,101873.69
2019-02-12T00:37:05.383Z,101874.11
2019-02-12T00:39:38.558Z,101882.77
2019-02-12T00:42:10.323Z,101887.94
2019-02-12T00:44:42.278Z,101877.08
2019-02-12T00:47:13.917Z,101885.25
2019-02-12T00:49:46.396Z,101888.68
2019-02-12T00:52:18.004Z,101886.04
2019-02-12T00:54:49.961Z,101899.42
2019-02-12T00:57:21.515Z,101905.86
2019-02-12T00:59:53.160Z,101916.26
2019-02-12T01:02:25.067Z,101929.66
2019-02-12T01:04:57.306Z,101940.92
2019-02-12T01:07:29.013Z,101943.05
2019-02-12T01:10:00.664Z,101937.85
2019-02-12T01:12:32.405Z,101934.81
2019-02-12T01:15:04.502Z,101941.27
2019-02-12T01:17:36.126Z,101942.52
2019-02-12T01:20:11.311Z,101939.50
2019-02-12T01:22:42.892Z,101939.47
2019-02-12T01:25:14.567Z,101945.96
2019-02-12T01:27:46.203Z,101937.27
2019-02-12T01:30:18.453Z,101932.05
2019-02-12T01:32:50.237Z,101928.14
2019-02-12T01:35:22.542Z,101922.06
2019-02-12T01:37:55.156Z,101913.41
2019-02-12T01:40:28.317Z,101911.23
2019-02-12T01:43:00.005Z,101912.06
2019-02-12T01:45:34.016Z,101924.14
2019-02-12T01:48:08.339Z,101931.47
2019-02-12T01:50:45.409Z,101933.20
2019-02-12T01:53:17.272Z,101935.28
2019-02-12T01:55:48.914Z,101940.47
2019-02-12T01:58:21.488Z,101946.50
2019-02-12T02:00:53.213Z,101943.91
2019-02-12T02:03:25.270Z,101949.02
2019-02-12T02:05:57.990Z,101957.98
2019-02-12T02:08:33.028Z,101961.33
2019-02-12T02:11:04.654Z,101968.59
2019-02-12T02:13:36.437Z,101970.27
2019-02-12T02:16:11.879Z,101975.43
2019-02-12T02:18:43.981Z,101979.28
2019-02-12T02:21:22.695Z,101981.46
2019-02-12T02:23:54.724Z,101968.49
2019-02-12T02:26:27.069Z,101970.21
2019-02-12T02:28:59.137Z,101968.52
2019-02-12T02:31:30.733Z,101965.51
2019-02-12T02:34:02.595Z,101965.57
2019-02-12T02:36:34.560Z,101973.74
2019-02-12T02:39:07.234Z,101979.77
2019-02-12T02:41:39.929Z,101986.61
2019-02-12T02:44:11.859Z,101988.30
2019-02-12T02:46:43.454Z,101990.41
2019-02-12T02:49:15.269Z,101999.94
2019-02-12T02:51:53.769Z,101996.05
2019-02-12T02:54:21.039Z,102010.77
2019-02-12T02:56:52.705Z,102012.48
2019-02-12T02:59:25.561Z,102015.98
2019-02-12T03:01:57.829Z,102018.16
2019-02-12T03:04:29.451Z,102022.92
2019-02-12T03:07:02.321Z,102022.50
2019-02-12T03:09:34.582Z,102022.53
2019-02-12T03:12:06.239Z,102027.69
2019-02-12T03:14:37.838Z,102031.58
2019-02-12T03:17:09.510Z,102024.64
2019-02-12T03:19:42.214Z,102028.50
2019-02-12T03:22:13.966Z,102025.06
2019-02-12T03:24:46.177Z,102028.53
2019-02-12T03:27:17.792Z,102028.95
2019-02-12T03:29:49.443Z,102028.95
2019-02-12T03:32:21.070Z,102033.72
2019-02-12T03:34:52.928Z,102038.03
2019-02-12T03:37:24.618Z,102041.08
2019-02-12T03:39:56.888Z,102043.67
2019-02-12T03:42:28.474Z,102042.34
2019-02-12T03:45:00.354Z,102043.56
2019-02-12T03:47:32.023Z,102050.50
2019-02-12T03:50:03.899Z,102051.41
2019-02-12T03:52:35.820Z,102052.30
2019-02-12T03:55:09.302Z,102045.42
2019-02-12T03:57:41.105Z,102052.02
2019-02-12T04:00:14.671Z,102052.12
2019-02-12T04:03:07.272Z,102050.92
2019-02-12T04:05:40.317Z,102053.19
2019-02-12T04:08:12.377Z,102057.15
2019-02-12T04:10:44.849Z,102058.55
2019-02-12T04:13:18.035Z,102050.79
2019-02-12T04:15:51.196Z,102060.36
2019-02-12T04:18:24.417Z,102058.70
2019-02-12T04:20:57.698Z,102059.16
2019-02-12T04:23:30.996Z,102063.95
2019-02-12T04:26:04.796Z,102062.27
2019-02-12T04:28:38.239Z,102066.20
2019-02-12T04:31:09.957Z,102072.66
2019-02-12T04:33:41.634Z,102064.86
2019-02-12T04:36:13.240Z,102057.08
2019-02-12T04:38:44.839Z,102063.17
2019-02-12T04:41:16.444Z,102065.73
2019-02-12T04:43:48.549Z,102054.03
2019-02-12T04:46:20.289Z,102055.78
2019-02-12T04:48:51.901Z,102055.78
2019-02-12T04:51:23.483Z,102055.75
2019-02-12T04:53:55.107Z,102057.83
2019-02-12T04:56:26.922Z,102056.86
2019-02-12T04:58:59.182Z,102065.00
2019-02-12T05:01:31.295Z,102065.84
2019-02-12T05:04:02.924Z,102069.73
2019-02-12T05:06:34.532Z,102069.31
2019-02-12T05:09:20.841Z,102074.12
2019-02-12T05:12:04.712Z,102073.72
2019-02-12T05:14:36.592Z,102060.78
2019-02-12T05:17:08.285Z,102076.88
2019-02-12T05:19:39.935Z,102071.23
2019-02-12T05:22:11.620Z,102080.28
2019-02-12T05:24:43.324Z,102078.07
2019-02-12T05:27:15.027Z,102075.86
2019-02-12T05:29:46.794Z,102072.75
2019-02-12T05:32:18.429Z,102074.44
2019-02-12T05:34:50.031Z,102076.12
2019-02-12T05:37:21.658Z,102080.82
2019-02-12T05:39:53.365Z,102086.02
2019-02-12T05:42:26.054Z,102078.19
2019-02-12T05:44:58.017Z,102079.91
2019-02-12T05:47:29.645Z,102079.91
2019-02-12T05:50:02.743Z,102078.16
2019-02-12T05:52:34.451Z,102083.73
2019-02-12T05:55:06.158Z,102093.20
2019-02-12T05:57:37.838Z,102094.92
2019-02-12T06:00:13.456Z,102097.05
2019-02-12T06:02:45.242Z,102102.20
2019-02-12T06:05:30.158Z,102100.45
2019-02-12T06:08:01.964Z,102103.50
2019-02-12T06:10:33.621Z,102107.39
2019-02-12T06:13:05.494Z,102096.56
2019-02-12T06:15:37.308Z,102093.55
2019-02-12T06:18:08.914Z,102094.42
2019-02-12T06:20:40.613Z,102090.53
2019-02-12T06:23:12.297Z,102102.62
2019-02-12T06:25:44.149Z,102102.62
2019-02-12T06:28:15.757Z,102103.05
2019-02-12T06:30:47.752Z,102109.91
2019-02-12T06:33:21.665Z,102111.22
2019-02-12T06:35:53.304Z,102113.81
2019-02-12T06:38:25.087Z,102112.13
2019-02-12T06:40:56.723Z,102112.55
2019-02-12T06:43:28.341Z,102113.39
2019-02-12T06:46:00.339Z,102116.78
2019-02-12T06:48:31.959Z,102117.66
2019-02-12T06:51:03.796Z,102116.75
2019-02-12T06:53:35.560Z,102126.20
2019-02-12T06:56:07.190Z,102130.98
2019-02-12T06:58:38.804Z,102139.21
2019-02-12T07:01:10.594Z,102142.69
2019-02-12T07:04:03.489Z,102144.02
2019-02-12T07:07:33.447Z,102145.77
2019-02-12T07:10:35.061Z,102150.09
2019-02-12T07:13:58.428Z,102156.19
2019-02-12T07:17:17.408Z,102154.92
2019-02-12T07:20:13.658Z,102162.71
2019-02-12T07:23:06.314Z,102159.66
2019-02-12T07:26:53.731Z,102167.97
2019-02-12T07:30:32.994Z,102177.12
2019-02-12T07:33:45.340Z,102173.23
2019-02-12T07:37:18.842Z,102173.66
2019-02-12T07:40:52.883Z,102180.17
2019-02-12T07:44:24.478Z,102194.06
2019-02-12T07:47:19.801Z,102188.88
2019-02-12T07:50:29.458Z,102188.03
2019-02-12T07:53:47.509Z,102186.81
2019-02-12T07:57:05.389Z,102192.92
2019-02-12T08:00:02.856Z,102199.94
2019-02-12T08:03:14.760Z,102198.33
2019-02-12T08:06:24.332Z,102205.35
2019-02-12T08:10:04.337Z,102200.23
2019-02-12T08:13:16.487Z,102203.36
2019-02-12T08:16:26.185Z,102206.45
2019-02-12T08:19:49.819Z,102210.45
2019-02-12T08:23:28.260Z,102220.94
2019-02-12T08:26:50.443Z,102222.30
2019-02-12T08:30:15.350Z,102219.77
2019-02-12T08:33:29.930Z,102225.88
2019-02-12T08:36:53.989Z,102230.27
2019-02-12T08:40:05.206Z,102239.78
2019-02-12T08:43:39.290Z,102240.66
2019-02-12T08:47:11.860Z,102232.51
2019-02-12T08:49:58.938Z,102240.82
2019-02-12T08:53:13.294Z,102244.82
2019-02-12T08:56:24.948Z,102250.14
2019-02-12T08:59:34.628Z,102253.84
2019-02-12T09:03:06.143Z,102260.13
2019-02-12T09:06:19.204Z,102256.80
2019-02-12T09:09:55.932Z,102255.25
2019-02-12T09:13:38.225Z,102257.05
2019-02-12T09:17:21.191Z,102262.79
2019-02-12T09:20:46.001Z,102260.24
2019-02-12T09:24:17.423Z,102266.31
2019-02-12T09:27:42.499Z,102267.24
2019-02-12T09:31:23.559Z,102269.95
2019-02-12T09:34:57.660Z,102273.50
2019-02-12T09:38:25.185Z,102270.97
2019-02-12T09:41:38.269Z,102281.02
2019-02-12T09:44:52.550Z,102284.09
2019-02-12T09:48:10.427Z,102281.11
2019-02-12T09:51:28.618Z,102286.83
2019-02-12T09:54:54.389Z,102289.58
2019-02-12T09:58:22.676Z,102287.18
2019-02-12T10:02:00.098Z,102295.52
2019-02-12T10:05:32.346Z,102296.05
2019-02-12T10:08:46.968Z,102291.73
2019-02-12T10:12:14.694Z,102301.31
2019-02-12T10:15:19.776Z,102297.45
2019-02-12T10:18:51.207Z,102309.62
2019-02-12T10:21:53.574Z,102311.42
2019-02-12T10:25:11.372Z,102314.52
2019-02-12T10:29:01.484Z,102314.99
2019-02-12T10:31:43.507Z,102311.55
2019-02-12T10:34:15.194Z,102326.42
2019-02-12T10:36:46.967Z,102316.48
2019-02-12T10:39:18.850Z,102322.58
2019-02-12T10:41:50.739Z,102321.36
2019-02-12T10:44:22.411Z,102324.00
2019-02-12T10:46:57.630Z,102319.27
2019-02-12T10:49:30.338Z,102321.48
2019-02-12T10:52:02.033Z,102311.92
2019-02-12T10:55:37.182Z,102319.36
2019-02-12T10:58:09.930Z,102317.66
2019-02-12T11:00:41.773Z,102321.59
2019-02-12T11:03:14.079Z,102317.25
2019-02-12T11:05:47.314Z,102319.89
2019-02-12T11:08:18.937Z,102321.21
2019-02-12T11:10:51.016Z,102312.52
2019-02-12T11:13:22.751Z,102318.64
2019-02-12T11:15:54.876Z,102318.70
2019-02-12T11:18:26.620Z,102315.69
2019-02-12T11:20:58.311Z,102326.13
2019-02-12T11:23:30.118Z,102323.52
2019-02-12T11:26:02.402Z,102325.26
2019-02-12T11:28:34.053Z,102321.33
2019-02-12T11:31:05.745Z,102316.55
2019-02-12T11:33:37.936Z,102316.55
2019-02-12T11:36:10.246Z,102324.84
2019-02-12T11:38:42.038Z,102322.67
2019-02-12T11:41:14.154Z,102317.89
2019-02-12T11:43:45.829Z,102318.76
2019-02-12T11:46:19.862Z,102323.97
2019-02-12T11:48:51.532Z,102319.63
2019-02-12T11:51:23.275Z,102314.85
2019-02-12T11:53:55.012Z,102307.01
2019-02-12T11:56:26.773Z,102307.00
2019-02-12T11:58:58.407Z,102303.53
2019-02-12T12:01:31.469Z,102301.35
2019-02-12T12:04:05.365Z,102300.48
2019-02-12T12:06:37.201Z,102299.16
2019-02-12T12:09:09.280Z,102317.90
2019-02-12T12:11:41.077Z,102309.61
2019-02-12T12:14:12.909Z,102308.30
2019-02-12T12:16:44.526Z,102306.11
2019-02-12T12:19:17.866Z,102305.66
2019-02-12T12:21:51.505Z,102305.22
2019-02-12T12:24:27.274Z,102302.59
2019-02-12T12:26:59.275Z,102299.55
2019-02-12T12:29:31.046Z,102302.61
2019-02-12T12:32:03.013Z,102302.14
2019-02-12T12:34:37.603Z,102304.77
2019-02-12T12:37:09.392Z,102309.11
2019-02-12T12:39:41.592Z,102314.34
2019-02-12T12:42:13.660Z,102300.38
2019-02-12T12:44:45.336Z,102309.55
2019-02-12T12:47:17.191Z,102299.49
2019-02-12T12:49:49.214Z,102301.25
2019-02-12T12:52:20.814Z,102300.35
2019-02-12T12:54:59.736Z,102296.42
2019-02-12T12:57:25.944Z,102290.30
2019-02-12T12:59:57.815Z,102288.97
2019-02-12T13:02:29.873Z,102291.59
2019-02-12T13:05:02.723Z,102292.89
2019-02-12T13:07:34.474Z,102290.28
2019-02-12T13:10:08.707Z,102294.64
2019-02-12T13:12:40.379Z,102292.45
2019-02-12T13:15:13.411Z,102292.92
2019-02-12T13:17:45.197Z,102295.09
2019-02-12T13:20:17.230Z,102298.61
2019-02-12T13:22:48.986Z,102301.22
2019-02-12T13:25:21.064Z,102296.44
2019-02-12T13:27:52.796Z,102289.47
2019-02-12T13:30:24.505Z,102283.81
2019-02-12T13:32:56.524Z,102296.92
2019-02-12T13:35:28.592Z,102303.91
2019-02-12T13:38:00.300Z,102290.38
2019-02-12T13:40:32.487Z,102292.59
2019-02-12T13:43:04.289Z,102289.53
2019-02-12T13:45:36.376Z,102289.11
2019-02-12T13:48:08.420Z,102293.45
2019-02-12T13:50:40.921Z,102290.38
2019-02-12T13:53:12.708Z,102295.61
2019-02-12T13:55:45.502Z,102296.03
2019-02-12T13:58:17.114Z,102297.74
2019-02-12T14:00:48.860Z,102302.55
2019-02-12T14:03:22.460Z,102300.34
2019-02-12T14:05:54.464Z,102299.91
2019-02-12T14:08:26.859Z,102301.66
2019-02-12T14:10:58.707Z,102299.47
2019-02-12T14:13:30.451Z,102305.15
2019-02-12T14:16:02.171Z,102306.90
2019-02-12T14:18:33.832Z,102306.02
2019-02-12T14:21:05.639Z,102305.17
2019-02-12T14:23:37.941Z,102305.19
2019-02-12T14:26:09.751Z,102304.31
2019-02-12T14:28:41.430Z,102304.33
2019-02-12T14:31:13.143Z,102309.99
2019-02-12T14:33:45.094Z,102312.20
2019-02-12T14:36:16.863Z,102308.27
2019-02-12T14:38:49.225Z,102310.00
2019-02-12T14:41:20.984Z,102306.97
2019-02-12T14:43:52.684Z,102309.58
2019-02-12T14:46:24.412Z,102315.27
2019-02-12T14:48:56.124Z,102317.00
2019-02-12T14:51:28.061Z,102323.12
2019-02-12T14:54:00.507Z,102314.40
2019-02-12T14:56:32.346Z,102316.57
2019-02-12T14:59:04.379Z,102322.69
2019-02-12T15:01:36.063Z,102318.78
2019-02-12T15:04:08.219Z,102320.97
2019-02-12T15:06:40.027Z,102318.34
2019-02-12T15:09:12.801Z,102319.22
2019-02-12T15:11:44.508Z,102324.44
2019-02-12T15:14:16.358Z,102324.00
2019-02-12T15:16:48.039Z,102317.04
2019-02-12T15:19:19.890Z,102316.17
2019-02-12T15:21:51.594Z,102319.22
2019-02-12T15:24:23.948Z,102315.28
2019-02-12T15:26:55.620Z,102321.83
2019-02-12T15:29:28.201Z,102318.35
2019-02-12T15:31:59.946Z,102317.03
2019-02-12T15:34:31.902Z,102321.39
2019-02-12T15:37:06.557Z,102320.96
2019-02-12T15:39:38.922Z,102314.87
2019-02-12T15:42:10.674Z,102320.95
2019-02-12T15:44:42.329Z,102324.00
2019-02-12T15:47:13.956Z,102322.70
2019-02-12T15:49:45.628Z,102326.17
2019-02-12T15:52:17.310Z,102325.32
2019-02-12T15:54:49.762Z,102322.27
2019-02-12T15:57:22.636Z,102324.87
2019-02-12T15:59:56.102Z,102322.27
2019-02-12T16:02:28.143Z,102320.08
2019-02-12T16:05:00.515Z,102321.39
2019-02-12T16:07:32.375Z,102320.52
2019-02-12T16:10:04.145Z,102323.58
2019-02-12T16:12:36.206Z,102320.52
2019-02-12T16:15:11.435Z,102318.33
2019-02-12T16:17:43.178Z,102320.08
2019-02-12T16:20:15.104Z,102322.25
2019-02-12T16:22:48.417Z,102322.67
2019-02-12T16:25:20.099Z,102321.36
2019-02-12T16:27:51.816Z,102325.28
2019-02-12T16:30:23.559Z,102330.09
2019-02-12T16:32:55.611Z,102334.00
2019-02-12T16:35:27.335Z,102336.62
2019-02-12T16:37:59.178Z,102335.75
2019-02-12T16:40:30.906Z,102336.60
2019-02-12T16:43:02.664Z,102340.06
2019-02-12T16:45:51.630Z,102338.34
2019-02-12T16:48:24.538Z,102340.49
2019-02-12T16:50:56.575Z,102350.09
2019-02-12T16:53:28.275Z,102345.73
2019-02-12T16:56:07.945Z,102360.09
2019-02-12T16:58:33.373Z,102358.32
2019-02-12T17:01:05.234Z,102360.04
2019-02-12T17:03:37.825Z,102368.30
2019-02-12T17:06:11.473Z,102364.37
2019-02-12T17:08:43.192Z,102371.30
2019-02-12T17:11:14.811Z,102371.73
2019-02-12T17:13:46.486Z,102371.27
2019-02-12T17:16:18.274Z,102376.48
2019-02-12T17:18:51.004Z,102376.47
2019-02-12T17:21:22.730Z,102382.14
2019-02-12T17:23:54.444Z,102380.82
2019-02-12T17:26:26.488Z,102384.27
2019-02-12T17:28:58.163Z,102389.06
2019-02-12T17:31:31.392Z,102386.41
2019-02-12T17:34:03.704Z,102397.27
2019-02-12T17:36:35.503Z,102399.45
2019-02-12T17:39:08.428Z,102398.12
2019-02-12T17:41:40.367Z,102402.02
2019-02-12T17:44:12.112Z,102403.71
2019-02-12T17:46:43.808Z,102411.98
2019-02-12T17:49:16.140Z,102400.63
2019-02-12T17:51:47.961Z,102403.23
2019-02-12T17:54:21.507Z,102395.42
2019-02-12T17:56:53.262Z,102402.42
2019-02-12T17:59:25.547Z,102408.93
2019-02-12T18:01:57.422Z,102405.02
2019-02-12T18:04:31.706Z,102413.30
2019-02-12T18:07:03.490Z,102411.56
2019-02-12T18:09:36.393Z,102415.45
2019-02-12T18:12:08.157Z,102420.69
2019-02-12T18:14:39.985Z,102424.59
2019-02-12T18:17:11.664Z,102426.73
2019-02-12T18:19:44.139Z,102425.41
2019-02-12T18:22:16.155Z,102432.74
2019-02-12T18:24:48.156Z,102434.90
2019-02-12T18:27:20.293Z,102437.88
2019-02-12T18:29:52.280Z,102445.27
2019-02-12T18:32:24.195Z,102450.88
2019-02-12T18:34:56.625Z,102455.64
2019-02-12T18:37:28.340Z,102458.22
2019-02-12T18:40:00.268Z,102452.55
2019-02-12T18:42:31.991Z,102460.83
2019-02-12T18:45:04.141Z,102466.48
2019-02-12T18:47:36.042Z,102461.22
2019-02-12T18:50:09.481Z,102459.45
2019-02-12T18:52:41.457Z,102455.94
2019-02-12T18:55:14.477Z,102457.66
2019-02-12T18:57:46.293Z,102456.73
2019-02-12T19:00:20.638Z,102464.52
2019-02-12T19:02:52.475Z,102457.11
2019-02-12T19:05:25.957Z,102464.91
2019-02-12T19:07:57.880Z,102468.75
2019-02-12T19:10:30.209Z,102464.81
2019-02-12T19:13:02.074Z,102468.25
2019-02-12T19:15:34.052Z,102464.77
2019-02-12T19:18:11.874Z,102470.39
2019-02-12T19:20:43.668Z,102468.21
2019-02-12T19:23:16.234Z,102471.58
2019-02-12T19:25:48.249Z,102477.06
2019-02-12T19:28:20.261Z,102476.45
2019-02-12T19:30:52.376Z,102475.43
2019-02-12T19:33:25.100Z,102474.10
2019-02-12T19:35:56.948Z,102474.95
2019-02-12T19:38:29.220Z,102472.77
2019-02-12T19:41:01.279Z,102472.32
2019-02-12T19:43:33.279Z,102480.53
2019-02-12T19:46:06.880Z,102476.17
2019-02-12T19:48:40.549Z,102490.95
2019-02-12T19:51:12.385Z,102487.89
2019-02-12T19:53:44.791Z,102487.37
2019-02-12T19:56:16.519Z,102492.07
2019-02-12T19:58:48.447Z,102481.59
2019-02-12T20:01:20.298Z,102484.59
2019-02-12T20:03:52.462Z,102490.19
2019-02-12T20:06:24.182Z,102491.04
2019-02-12T20:08:56.532Z,102489.28
2019-02-12T20:11:28.388Z,102497.13
2019-02-12T20:14:00.313Z,102500.52
2019-02-12T20:16:32.173Z,102496.97
2019-02-12T20:19:08.684Z,102496.05
2019-02-12T20:21:40.478Z,102496.02
2019-02-12T20:24:12.949Z,102490.75
2019-02-12T20:26:44.754Z,102485.48
2019-02-12T20:29:16.700Z,102485.94
2019-02-12T20:31:50.292Z,102483.73
2019-02-12T20:34:22.074Z,102491.50
2019-02-12T20:36:54.090Z,102482.26
2019-02-12T20:39:25.820Z,102482.44
2019-02-12T20:41:57.987Z,102482.53
2019-02-12T20:44:29.765Z,102490.98
2019-02-12T20:47:01.519Z,102485.17
2019-02-12T20:49:33.302Z,102490.38
2019-02-12T20:52:09.116Z,102486.48
2019-02-12T20:54:41.005Z,102501.27
2019-02-12T20:57:15.095Z,102496.98
2019-02-12T20:59:46.533Z,102496.15
2019-02-12T21:02:18.511Z,102496.19
2019-02-12T21:04:54.778Z,102489.73
2019-02-12T21:07:26.804Z,102496.27
2019-02-12T21:09:58.848Z,102504.48
2019-02-12T21:12:30.907Z,102503.11
2019-02-12T21:15:02.631Z,102501.23
2019-02-12T21:17:34.341Z,102511.08
2019-02-12T21:20:07.772Z,102520.52
2019-02-12T21:22:39.710Z,102513.06
2019-02-12T21:25:11.991Z,102516.08
2019-02-12T21:27:44.155Z,102515.20
2019-02-12T21:30:18.996Z,102518.17
2019-02-12T21:32:50.695Z,102509.50
2019-02-12T21:35:23.214Z,102508.12
2019-02-12T21:37:55.241Z,102514.15
2019-02-12T21:40:26.944Z,102511.84
2019-02-12T21:42:58.966Z,102511.34
2019-02-12T21:45:30.886Z,102511.80
2019-02-12T21:48:02.592Z,102506.56
2019-02-12T21:50:34.230Z,102494.45
2019-02-12T21:53:05.916Z,102485.78
2019-02-12T21:55:38.521Z,102493.57
2019-02-12T21:58:11.535Z,102500.83
2019-02-12T22:00:43.278Z,102503.75
2019-02-12T22:03:15.917Z,102504.97
2019-02-12T22:05:47.890Z,102513.91
2019-02-12T22:08:20.391Z,102509.42
2019-02-12T22:10:52.360Z,102514.06
2019-02-12T22:13:24.400Z,102520.04
2019-02-12T22:15:56.071Z,102522.53
2019-02-12T22:18:28.975Z,102515.45
2019-02-12T22:21:00.725Z,102522.25
2019-02-12T22:23:32.357Z,102524.23
2019-02-12T22:26:04.748Z,102512.78
2019-02-12T22:28:36.454Z,102506.19
2019-02-12T22:31:08.476Z,102500.50
2019-02-12T22:33:40.118Z,102504.44
2019-02-12T22:36:11.814Z,102506.19
2019-02-12T22:38:43.484Z,102505.78
2019-02-12T22:41:15.215Z,102506.61
2019-02-12T22:43:47.107Z,102507.41
2019-02-12T22:46:19.254Z,102512.59
2019-02-12T22:48:50.923Z,102513.01
2019-02-12T22:51:22.803Z,102522.46
2019-02-12T22:53:58.544Z,102527.59
2019-02-12T22:56:30.268Z,102522.77
2019-02-12T22:59:01.927Z,102518.84
2019-02-12T23:01:39.848Z,102518.84
2019-02-12T23:04:11.505Z,102515.26
2019-02-12T23:06:43.656Z,102516.39
2019-02-12T23:09:19.115Z,102510.63
2019-02-12T23:11:50.773Z,102514.45
2019-02-12T23:14:23.104Z,102506.68
2019-02-12T23:16:55.308Z,102507.57
2019-02-12T23:19:27.147Z,102508.96
2019-02-12T23:21:59.985Z,102505.08
2019-02-12T23:24:31.793Z,102509.70
2019-02-12T23:27:03.732Z,102525.14
2019-02-12T23:29:35.345Z,102530.95
2019-02-12T23:32:07.394Z,102535.09
2019-02-12T23:34:39.011Z,102538.08
2019-02-12T23:37:10.643Z,102539.33
2019-02-12T23:39:42.263Z,102532.84
2019-02-12T23:42:13.938Z,102526.02
2019-02-12T23:44:45.548Z,102523.52
2019-02-12T23:47:17.528Z,102515.81
2019-02-12T23:49:49.138Z,102517.62
2019-02-12T23:52:20.915Z,102501.66
2019-02-12T23:54:52.513Z,102500.46
2019-02-12T23:57:24.486Z,102497.91
2019-02-12T23:59:56.079Z,102507.47
